Progress Acres, Indiana
Current Conditions -  °F | °C
As of 3:53 AM on Wednesday 26 Nov 2014 (Local Time) from KHUF Reporting Station
Clear Clear  
Wind Chill: 18°   Ceiling: Unl
Heat Index: 24°   Visibility: 10mi
Dew Point: 20°   Wind: 5mph
Humidity: 84%   Direction: 80°E
Pressure: 30.17"   Gusts: NA
Location:  39.543°N, 87.3153°W
Report Text: KHUF 260853Z 08004KT 10SM CLR M04/M07 A3017 RMK AO2 SLP224 T10441067 55005
Loading
Personal Weather Stations






























Interactive Weather Map New forecast layout! Learn more

10-Day Weather Forecast

Advertisements
Track Severe Weather on mobile